sensor_id;sensor_type;location;lat;lon;timestamp;P1;durP1;ratioP1;P2;durP2;ratioP2
78877;SDS011;68257;43.514;1.498;2023-03-23T00:02:23;3.42;;;1.30;;
78877;SDS011;68257;43.514;1.498;2023-03-23T00:04:53;3.05;;;1.30;;
78877;SDS011;68257;43.514;1.498;2023-03-23T00:07:19;3.53;;;1.20;;
78877;SDS011;68257;43.514;1.498;2023-03-23T00:09:48;3.97;;;1.35;;
78877;SDS011;68257;43.514;1.498;2023-03-23T00:12:22;2.80;;;1.20;;
78877;SDS011;68257;43.514;1.498;2023-03-23T00:15:01;3.40;;;1.67;;
78877;SDS011;68257;43.514;1.498;2023-03-23T00:17:29;2.67;;;1.17;;
78877;SDS011;68257;43.514;1.498;2023-03-23T00:19:55;3.00;;;1.17;;
78877;SDS011;68257;43.514;1.498;2023-03-23T00:22:20;5.43;;;1.60;;
78877;SDS011;68257;43.514;1.498;2023-03-23T00:24:46;4.87;;;1.63;;
78877;SDS011;68257;43.514;1.498;2023-03-23T00:27:15;4.05;;;1.70;;
78877;SDS011;68257;43.514;1.498;2023-03-23T00:29:41;4.72;;;1.80;;
78877;SDS011;68257;43.514;1.498;2023-03-23T00:32:07;4.63;;;1.80;;
78877;SDS011;68257;43.514;1.498;2023-03-23T00:34:39;4.95;;;1.67;;
78877;SDS011;68257;43.514;1.498;2023-03-23T00:37:06;3.90;;;1.58;;
78877;SDS011;68257;43.514;1.498;2023-03-23T00:39:32;4.95;;;1.83;;
78877;SDS011;68257;43.514;1.498;2023-03-23T00:41:58;4.50;;;1.97;;
78877;SDS011;68257;43.514;1.498;2023-03-23T00:44:29;6.15;;;2.20;;
78877;SDS011;68257;43.514;1.498;2023-03-23T00:46:55;5.03;;;1.92;;
78877;SDS011;68257;43.514;1.498;2023-03-23T00:49:22;5.10;;;2.25;;
78877;SDS011;68257;43.514;1.498;2023-03-23T00:51:51;4.93;;;2.50;;
78877;SDS011;68257;43.514;1.498;2023-03-23T00:54:18;4.88;;;2.50;;
78877;SDS011;68257;43.514;1.498;2023-03-23T00:56:43;4.43;;;2.67;;
78877;SDS011;68257;43.514;1.498;2023-03-23T00:59:08;6.90;;;3.33;;
78877;SDS011;68257;43.514;1.498;2023-03-23T01:01:34;6.63;;;2.92;;
78877;SDS011;68257;43.514;1.498;2023-03-23T01:04:00;5.18;;;3.10;;
78877;SDS011;68257;43.514;1.498;2023-03-23T01:06:29;6.28;;;2.95;;
78877;SDS011;68257;43.514;1.498;2023-03-23T01:09:00;6.30;;;3.65;;
78877;SDS011;68257;43.514;1.498;2023-03-23T01:11:27;8.05;;;3.85;;
78877;SDS011;68257;43.514;1.498;2023-03-23T01:13:52;7.03;;;3.90;;
78877;SDS011;68257;43.514;1.498;2023-03-23T01:16:18;6.60;;;3.83;;
78877;SDS011;68257;43.514;1.498;2023-03-23T01:18:43;9.70;;;4.07;;
78877;SDS011;68257;43.514;1.498;2023-03-23T01:21:10;9.63;;;4.13;;
78877;SDS011;68257;43.514;1.498;2023-03-23T01:23:39;6.25;;;3.83;;
78877;SDS011;68257;43.514;1.498;2023-03-23T01:28:32;6.90;;;4.18;;
78877;SDS011;68257;43.514;1.498;2023-03-23T01:31:02;7.25;;;4.15;;
78877;SDS011;68257;43.514;1.498;2023-03-23T01:33:28;8.68;;;5.18;;
78877;SDS011;68257;43.514;1.498;2023-03-23T01:35:54;9.55;;;5.20;;
78877;SDS011;68257;43.514;1.498;2023-03-23T01:38:20;8.53;;;5.40;;
78877;SDS011;68257;43.514;1.498;2023-03-23T01:40:46;10.00;;;5.72;;
78877;SDS011;68257;43.514;1.498;2023-03-23T01:43:12;9.37;;;5.30;;
78877;SDS011;68257;43.514;1.498;2023-03-23T01:45:39;9.30;;;5.45;;
78877;SDS011;68257;43.514;1.498;2023-03-23T01:48:07;12.27;;;6.15;;
78877;SDS011;68257;43.514;1.498;2023-03-23T01:53:22;10.53;;;5.20;;
78877;SDS011;68257;43.514;1.498;2023-03-23T01:55:50;13.43;;;7.15;;
78877;SDS011;68257;43.514;1.498;2023-03-23T01:58:18;11.93;;;7.53;;
78877;SDS011;68257;43.514;1.498;2023-03-23T02:00:45;12.32;;;7.28;;
78877;SDS011;68257;43.514;1.498;2023-03-23T02:03:12;12.63;;;7.43;;
78877;SDS011;68257;43.514;1.498;2023-03-23T02:05:39;13.07;;;6.83;;
78877;SDS011;68257;43.514;1.498;2023-03-23T02:08:06;10.77;;;6.95;;
78877;SDS011;68257;43.514;1.498;2023-03-23T02:10:33;15.25;;;7.65;;
78877;SDS011;68257;43.514;1.498;2023-03-23T02:13:00;13.77;;;8.40;;
78877;SDS011;68257;43.514;1.498;2023-03-23T02:15:28;13.87;;;8.47;;
78877;SDS011;68257;43.514;1.498;2023-03-23T02:34:42;15.63;;;9.40;;
78877;SDS011;68257;43.514;1.498;2023-03-23T02:37:14;17.08;;;9.55;;
78877;SDS011;68257;43.514;1.498;2023-03-23T02:42:32;14.60;;;8.40;;
78877;SDS011;68257;43.514;1.498;2023-03-23T02:45:02;14.07;;;8.32;;
78877;SDS011;68257;43.514;1.498;2023-03-23T02:47:30;15.23;;;8.18;;
78877;SDS011;68257;43.514;1.498;2023-03-23T02:49:56;16.65;;;9.27;;
78877;SDS011;68257;43.514;1.498;2023-03-23T02:52:25;16.48;;;8.38;;
78877;SDS011;68257;43.514;1.498;2023-03-23T02:54:52;12.47;;;8.37;;
78877;SDS011;68257;43.514;1.498;2023-03-23T02:57:20;14.82;;;6.75;;
78877;SDS011;68257;43.514;1.498;2023-03-23T02:59:46;17.10;;;8.88;;
78877;SDS011;68257;43.514;1.498;2023-03-23T03:02:17;14.47;;;8.73;;
78877;SDS011;68257;43.514;1.498;2023-03-23T03:04:48;13.20;;;8.52;;
78877;SDS011;68257;43.514;1.498;2023-03-23T03:10:23;13.90;;;8.00;;
78877;SDS011;68257;43.514;1.498;2023-03-23T03:15:55;11.73;;;6.97;;
78877;SDS011;68257;43.514;1.498;2023-03-23T03:21:07;14.73;;;7.68;;
78877;SDS011;68257;43.514;1.498;2023-03-23T03:23:35;12.95;;;7.45;;
78877;SDS011;68257;43.514;1.498;2023-03-23T03:26:02;13.27;;;7.18;;
78877;SDS011;68257;43.514;1.498;2023-03-23T03:28:29;13.50;;;6.63;;
78877;SDS011;68257;43.514;1.498;2023-03-23T03:30:56;15.25;;;7.53;;
78877;SDS011;68257;43.514;1.498;2023-03-23T03:33:25;13.90;;;7.75;;
78877;SDS011;68257;43.514;1.498;2023-03-23T03:35:52;10.32;;;6.80;;
78877;SDS011;68257;43.514;1.498;2023-03-23T03:38:18;11.25;;;5.97;;
78877;SDS011;68257;43.514;1.498;2023-03-23T03:40:44;12.50;;;7.10;;
78877;SDS011;68257;43.514;1.498;2023-03-23T03:43:10;10.98;;;7.00;;
78877;SDS011;68257;43.514;1.498;2023-03-23T03:45:36;11.80;;;7.27;;
78877;SDS011;68257;43.514;1.498;2023-03-23T03:48:01;14.60;;;7.05;;
78877;SDS011;68257;43.514;1.498;2023-03-23T03:50:27;13.52;;;7.15;;
78877;SDS011;68257;43.514;1.498;2023-03-23T03:52:53;11.80;;;6.22;;
78877;SDS011;68257;43.514;1.498;2023-03-23T03:55:18;12.77;;;7.20;;
78877;SDS011;68257;43.514;1.498;2023-03-23T03:57:44;12.10;;;5.90;;
78877;SDS011;68257;43.514;1.498;2023-03-23T04:00:09;10.77;;;5.50;;
78877;SDS011;68257;43.514;1.498;2023-03-23T04:02:45;10.77;;;6.90;;
78877;SDS011;68257;43.514;1.498;2023-03-23T04:05:15;11.18;;;6.82;;
78877;SDS011;68257;43.514;1.498;2023-03-23T04:07:41;12.13;;;6.63;;
78877;SDS011;68257;43.514;1.498;2023-03-23T04:10:07;15.20;;;8.03;;
78877;SDS011;68257;43.514;1.498;2023-03-23T04:12:34;12.25;;;6.85;;
78877;SDS011;68257;43.514;1.498;2023-03-23T04:15:00;14.02;;;6.97;;
78877;SDS011;68257;43.514;1.498;2023-03-23T04:17:26;15.77;;;8.00;;
78877;SDS011;68257;43.514;1.498;2023-03-23T04:19:52;11.60;;;7.70;;
78877;SDS011;68257;43.514;1.498;2023-03-23T04:22:18;16.13;;;9.15;;
78877;SDS011;68257;43.514;1.498;2023-03-23T04:24:43;15.83;;;8.73;;
78877;SDS011;68257;43.514;1.498;2023-03-23T04:27:09;15.95;;;9.75;;
78877;SDS011;68257;43.514;1.498;2023-03-23T04:29:34;14.15;;;9.43;;
78877;SDS011;68257;43.514;1.498;2023-03-23T04:31:59;16.23;;;9.53;;
78877;SDS011;68257;43.514;1.498;2023-03-23T04:34:26;18.42;;;9.57;;
78877;SDS011;68257;43.514;1.498;2023-03-23T04:36:52;15.53;;;8.67;;
78877;SDS011;68257;43.514;1.498;2023-03-23T04:39:17;16.25;;;10.02;;
78877;SDS011;68257;43.514;1.498;2023-03-23T04:41:43;14.97;;;8.30;;
78877;SDS011;68257;43.514;1.498;2023-03-23T04:44:09;13.27;;;7.45;;
78877;SDS011;68257;43.514;1.498;2023-03-23T04:46:34;17.13;;;8.63;;
78877;SDS011;68257;43.514;1.498;2023-03-23T04:49:00;17.23;;;9.27;;
78877;SDS011;68257;43.514;1.498;2023-03-23T04:51:28;15.65;;;8.05;;
78877;SDS011;68257;43.514;1.498;2023-03-23T04:53:54;14.82;;;8.77;;
78877;SDS011;68257;43.514;1.498;2023-03-23T04:56:19;21.17;;;9.67;;
78877;SDS011;68257;43.514;1.498;2023-03-23T04:58:45;14.50;;;8.75;;
78877;SDS011;68257;43.514;1.498;2023-03-23T05:01:11;13.00;;;8.35;;
78877;SDS011;68257;43.514;1.498;2023-03-23T05:03:40;15.10;;;9.27;;
78877;SDS011;68257;43.514;1.498;2023-03-23T05:06:06;16.65;;;8.95;;
78877;SDS011;68257;43.514;1.498;2023-03-23T05:08:31;15.80;;;9.13;;
78877;SDS011;68257;43.514;1.498;2023-03-23T05:10:58;17.15;;;8.98;;
78877;SDS011;68257;43.514;1.498;2023-03-23T05:13:25;12.27;;;6.85;;
78877;SDS011;68257;43.514;1.498;2023-03-23T05:15:52;16.85;;;8.57;;
78877;SDS011;68257;43.514;1.498;2023-03-23T05:18:17;14.37;;;7.70;;
78877;SDS011;68257;43.514;1.498;2023-03-23T05:20:45;15.55;;;8.63;;
78877;SDS011;68257;43.514;1.498;2023-03-23T05:23:11;17.38;;;9.23;;
78877;SDS011;68257;43.514;1.498;2023-03-23T05:25:37;16.13;;;8.17;;
78877;SDS011;68257;43.514;1.498;2023-03-23T05:28:09;15.38;;;8.60;;
78877;SDS011;68257;43.514;1.498;2023-03-23T05:30:35;16.15;;;9.70;;
78877;SDS011;68257;43.514;1.498;2023-03-23T05:33:01;17.63;;;9.02;;
78877;SDS011;68257;43.514;1.498;2023-03-23T05:35:27;13.30;;;8.13;;
78877;SDS011;68257;43.514;1.498;2023-03-23T05:37:53;12.88;;;7.68;;
78877;SDS011;68257;43.514;1.498;2023-03-23T05:40:19;13.47;;;9.00;;
78877;SDS011;68257;43.514;1.498;2023-03-23T05:42:45;14.57;;;10.40;;
78877;SDS011;68257;43.514;1.498;2023-03-23T05:45:11;17.35;;;9.65;;
78877;SDS011;68257;43.514;1.498;2023-03-23T05:47:37;14.17;;;10.10;;
78877;SDS011;68257;43.514;1.498;2023-03-23T05:50:04;15.57;;;8.95;;
78877;SDS011;68257;43.514;1.498;2023-03-23T05:52:31;19.35;;;9.40;;
78877;SDS011;68257;43.514;1.498;2023-03-23T05:54:58;15.43;;;10.27;;
78877;SDS011;68257;43.514;1.498;2023-03-23T05:57:24;11.40;;;5.80;;
78877;SDS011;68257;43.514;1.498;2023-03-23T05:59:49;14.87;;;8.50;;
78877;SDS011;68257;43.514;1.498;2023-03-23T06:02:15;16.43;;;8.97;;
78877;SDS011;68257;43.514;1.498;2023-03-23T06:04:41;15.82;;;8.80;;
78877;SDS011;68257;43.514;1.498;2023-03-23T06:07:07;16.90;;;9.63;;
78877;SDS011;68257;43.514;1.498;2023-03-23T06:09:32;16.17;;;9.88;;
78877;SDS011;68257;43.514;1.498;2023-03-23T06:11:58;17.27;;;9.10;;
78877;SDS011;68257;43.514;1.498;2023-03-23T06:14:23;15.57;;;9.63;;
78877;SDS011;68257;43.514;1.498;2023-03-23T06:16:49;19.80;;;14.17;;
78877;SDS011;68257;43.514;1.498;2023-03-23T06:19:14;17.93;;;9.17;;
78877;SDS011;68257;43.514;1.498;2023-03-23T06:21:40;17.85;;;9.23;;
78877;SDS011;68257;43.514;1.498;2023-03-23T06:24:07;15.17;;;9.27;;
78877;SDS011;68257;43.514;1.498;2023-03-23T06:26:33;17.48;;;10.40;;
78877;SDS011;68257;43.514;1.498;2023-03-23T06:29:01;15.75;;;8.50;;
78877;SDS011;68257;43.514;1.498;2023-03-23T06:31:28;16.98;;;8.73;;
78877;SDS011;68257;43.514;1.498;2023-03-23T06:33:54;15.90;;;8.38;;
78877;SDS011;68257;43.514;1.498;2023-03-23T06:36:20;17.95;;;11.25;;
78877;SDS011;68257;43.514;1.498;2023-03-23T06:38:45;16.37;;;9.17;;
78877;SDS011;68257;43.514;1.498;2023-03-23T06:41:11;17.03;;;9.03;;
78877;SDS011;68257;43.514;1.498;2023-03-23T06:43:37;17.90;;;9.45;;
78877;SDS011;68257;43.514;1.498;2023-03-23T06:46:04;16.60;;;9.00;;
78877;SDS011;68257;43.514;1.498;2023-03-23T06:48:30;13.68;;;8.68;;
78877;SDS011;68257;43.514;1.498;2023-03-23T06:50:57;13.10;;;7.45;;
78877;SDS011;68257;43.514;1.498;2023-03-23T06:53:22;16.53;;;8.13;;
78877;SDS011;68257;43.514;1.498;2023-03-23T06:55:48;15.00;;;8.43;;
78877;SDS011;68257;43.514;1.498;2023-03-23T06:58:13;16.37;;;8.33;;
78877;SDS011;68257;43.514;1.498;2023-03-23T07:00:39;13.70;;;8.20;;
78877;SDS011;68257;43.514;1.498;2023-03-23T07:03:05;18.98;;;8.93;;
78877;SDS011;68257;43.514;1.498;2023-03-23T07:05:32;15.43;;;8.52;;
78877;SDS011;68257;43.514;1.498;2023-03-23T07:07:58;15.70;;;8.00;;
78877;SDS011;68257;43.514;1.498;2023-03-23T07:10:23;13.77;;;9.00;;
78877;SDS011;68257;43.514;1.498;2023-03-23T07:12:49;13.30;;;7.93;;
78877;SDS011;68257;43.514;1.498;2023-03-23T07:15:15;15.05;;;7.57;;
78877;SDS011;68257;43.514;1.498;2023-03-23T07:17:41;13.53;;;7.67;;
78877;SDS011;68257;43.514;1.498;2023-03-23T07:20:06;13.77;;;7.95;;
78877;SDS011;68257;43.514;1.498;2023-03-23T07:22:33;11.97;;;6.57;;
78877;SDS011;68257;43.514;1.498;2023-03-23T07:24:58;16.60;;;11.45;;
78877;SDS011;68257;43.514;1.498;2023-03-23T07:27:24;13.77;;;7.55;;
78877;SDS011;68257;43.514;1.498;2023-03-23T07:29:50;11.40;;;7.33;;
78877;SDS011;68257;43.514;1.498;2023-03-23T07:32:16;11.05;;;6.75;;
78877;SDS011;68257;43.514;1.498;2023-03-23T07:34:42;13.35;;;7.70;;
78877;SDS011;68257;43.514;1.498;2023-03-23T07:37:07;11.80;;;8.02;;
78877;SDS011;68257;43.514;1.498;2023-03-23T07:39:33;16.17;;;8.27;;
78877;SDS011;68257;43.514;1.498;2023-03-23T07:41:59;13.57;;;7.57;;
78877;SDS011;68257;43.514;1.498;2023-03-23T07:44:24;17.40;;;8.60;;
78877;SDS011;68257;43.514;1.498;2023-03-23T07:46:50;14.50;;;7.95;;
78877;SDS011;68257;43.514;1.498;2023-03-23T07:49:16;15.90;;;8.57;;
78877;SDS011;68257;43.514;1.498;2023-03-23T07:51:42;16.13;;;8.32;;
78877;SDS011;68257;43.514;1.498;2023-03-23T07:54:07;14.60;;;9.17;;
78877;SDS011;68257;43.514;1.498;2023-03-23T07:56:33;13.67;;;8.80;;
78877;SDS011;68257;43.514;1.498;2023-03-23T07:59:00;12.40;;;7.70;;
78877;SDS011;68257;43.514;1.498;2023-03-23T08:01:26;14.60;;;7.80;;
78877;SDS011;68257;43.514;1.498;2023-03-23T08:03:51;10.33;;;6.80;;
78877;SDS011;68257;43.514;1.498;2023-03-23T08:06:19;13.07;;;8.38;;
78877;SDS011;68257;43.514;1.498;2023-03-23T08:08:46;15.02;;;8.63;;
78877;SDS011;68257;43.514;1.498;2023-03-23T08:11:11;11.67;;;6.93;;
78877;SDS011;68257;43.514;1.498;2023-03-23T08:13:40;13.68;;;7.82;;
78877;SDS011;68257;43.514;1.498;2023-03-23T08:16:06;13.77;;;7.88;;
78877;SDS011;68257;43.514;1.498;2023-03-23T08:18:34;12.95;;;7.63;;
78877;SDS011;68257;43.514;1.498;2023-03-23T08:21:00;14.57;;;8.20;;
78877;SDS011;68257;43.514;1.498;2023-03-23T08:23:28;13.27;;;6.55;;
78877;SDS011;68257;43.514;1.498;2023-03-23T08:25:53;11.53;;;7.13;;
78877;SDS011;68257;43.514;1.498;2023-03-23T08:28:18;10.70;;;6.95;;
78877;SDS011;68257;43.514;1.498;2023-03-23T08:30:44;11.57;;;7.10;;
78877;SDS011;68257;43.514;1.498;2023-03-23T08:33:10;10.80;;;6.83;;
78877;SDS011;68257;43.514;1.498;2023-03-23T08:35:35;10.32;;;7.05;;
78877;SDS011;68257;43.514;1.498;2023-03-23T08:38:01;11.18;;;7.30;;
78877;SDS011;68257;43.514;1.498;2023-03-23T08:40:28;13.75;;;7.18;;
78877;SDS011;68257;43.514;1.498;2023-03-23T08:42:53;12.77;;;7.15;;
78877;SDS011;68257;43.514;1.498;2023-03-23T08:45:21;12.27;;;6.75;;
78877;SDS011;68257;43.514;1.498;2023-03-23T08:47:48;12.73;;;6.43;;
78877;SDS011;68257;43.514;1.498;2023-03-23T08:50:17;11.70;;;6.13;;
78877;SDS011;68257;43.514;1.498;2023-03-23T08:52:44;11.27;;;6.25;;
78877;SDS011;68257;43.514;1.498;2023-03-23T08:55:10;8.53;;;5.40;;
78877;SDS011;68257;43.514;1.498;2023-03-23T08:57:36;7.75;;;4.85;;
78877;SDS011;68257;43.514;1.498;2023-03-23T09:00:03;9.13;;;5.55;;
78877;SDS011;68257;43.514;1.498;2023-03-23T09:02:41;8.50;;;5.53;;
78877;SDS011;68257;43.514;1.498;2023-03-23T09:05:07;9.38;;;5.38;;
78877;SDS011;68257;43.514;1.498;2023-03-23T09:07:35;10.07;;;5.47;;
78877;SDS011;68257;43.514;1.498;2023-03-23T09:10:01;9.77;;;5.75;;
78877;SDS011;68257;43.514;1.498;2023-03-23T09:12:27;8.85;;;5.55;;
78877;SDS011;68257;43.514;1.498;2023-03-23T09:14:52;8.73;;;6.30;;
78877;SDS011;68257;43.514;1.498;2023-03-23T09:17:18;8.57;;;5.83;;
78877;SDS011;68257;43.514;1.498;2023-03-23T09:19:43;9.38;;;5.85;;
78877;SDS011;68257;43.514;1.498;2023-03-23T09:22:09;10.77;;;5.73;;
78877;SDS011;68257;43.514;1.498;2023-03-23T09:24:34;9.17;;;6.27;;
78877;SDS011;68257;43.514;1.498;2023-03-23T09:27:00;10.85;;;6.20;;
78877;SDS011;68257;43.514;1.498;2023-03-23T09:29:26;8.97;;;5.43;;
78877;SDS011;68257;43.514;1.498;2023-03-23T09:31:52;10.57;;;6.60;;
78877;SDS011;68257;43.514;1.498;2023-03-23T09:34:18;11.65;;;6.45;;
78877;SDS011;68257;43.514;1.498;2023-03-23T09:36:44;9.33;;;6.10;;
78877;SDS011;68257;43.514;1.498;2023-03-23T09:39:10;10.48;;;5.60;;
78877;SDS011;68257;43.514;1.498;2023-03-23T09:44:07;9.68;;;5.93;;
78877;SDS011;68257;43.514;1.498;2023-03-23T09:50:14;8.60;;;5.40;;
78877;SDS011;68257;43.514;1.498;2023-03-23T09:53:01;8.68;;;6.07;;
78877;SDS011;68257;43.514;1.498;2023-03-23T09:55:33;9.00;;;5.38;;
78877;SDS011;68257;43.514;1.498;2023-03-23T10:00:46;9.00;;;5.53;;
78877;SDS011;68257;43.514;1.498;2023-03-23T10:03:17;9.95;;;5.57;;
78877;SDS011;68257;43.514;1.498;2023-03-23T10:05:49;7.55;;;5.00;;
78877;SDS011;68257;43.514;1.498;2023-03-23T10:08:20;6.97;;;4.97;;
78877;SDS011;68257;43.514;1.498;2023-03-23T10:16:11;7.10;;;5.10;;
78877;SDS011;68257;43.514;1.498;2023-03-23T10:21:10;6.78;;;5.05;;
78877;SDS011;68257;43.514;1.498;2023-03-23T10:28:57;7.20;;;5.15;;
78877;SDS011;68257;43.514;1.498;2023-03-23T10:31:30;7.27;;;4.83;;
78877;SDS011;68257;43.514;1.498;2023-03-23T10:34:04;8.30;;;4.43;;
78877;SDS011;68257;43.514;1.498;2023-03-23T10:36:35;7.32;;;4.78;;
78877;SDS011;68257;43.514;1.498;2023-03-23T10:39:13;6.97;;;4.80;;
78877;SDS011;68257;43.514;1.498;2023-03-23T10:41:42;6.43;;;5.20;;
78877;SDS011;68257;43.514;1.498;2023-03-23T10:44:09;8.20;;;5.53;;
78877;SDS011;68257;43.514;1.498;2023-03-23T10:46:46;8.90;;;6.10;;
78877;SDS011;68257;43.514;1.498;2023-03-23T10:49:16;8.67;;;5.67;;
78877;SDS011;68257;43.514;1.498;2023-03-23T10:51:46;8.93;;;6.32;;
78877;SDS011;68257;43.514;1.498;2023-03-23T10:54:24;9.45;;;6.38;;
78877;SDS011;68257;43.514;1.498;2023-03-23T10:56:57;9.18;;;7.00;;
78877;SDS011;68257;43.514;1.498;2023-03-23T10:59:27;11.37;;;6.77;;
78877;SDS011;68257;43.514;1.498;2023-03-23T11:01:57;8.68;;;6.60;;
78877;SDS011;68257;43.514;1.498;2023-03-23T11:04:27;8.38;;;6.28;;
78877;SDS011;68257;43.514;1.498;2023-03-23T11:06:54;7.73;;;5.70;;
78877;SDS011;68257;43.514;1.498;2023-03-23T11:09:33;9.10;;;6.47;;
78877;SDS011;68257;43.514;1.498;2023-03-23T11:12:03;8.73;;;6.53;;
78877;SDS011;68257;43.514;1.498;2023-03-23T11:14:30;7.10;;;5.88;;
78877;SDS011;68257;43.514;1.498;2023-03-23T11:16:58;10.52;;;6.75;;
78877;SDS011;68257;43.514;1.498;2023-03-23T11:19:27;10.47;;;7.27;;
78877;SDS011;68257;43.514;1.498;2023-03-23T11:24:43;7.55;;;6.60;;
78877;SDS011;68257;43.514;1.498;2023-03-23T11:27:11;7.75;;;6.10;;
78877;SDS011;68257;43.514;1.498;2023-03-23T11:29:41;8.47;;;6.17;;
78877;SDS011;68257;43.514;1.498;2023-03-23T11:32:14;8.73;;;6.90;;
78877;SDS011;68257;43.514;1.498;2023-03-23T11:34:41;9.43;;;6.53;;
78877;SDS011;68257;43.514;1.498;2023-03-23T11:37:27;7.90;;;6.25;;
78877;SDS011;68257;43.514;1.498;2023-03-23T11:39:54;8.67;;;7.23;;
78877;SDS011;68257;43.514;1.498;2023-03-23T11:42:23;8.13;;;6.93;;
78877;SDS011;68257;43.514;1.498;2023-03-23T11:47:51;8.98;;;7.05;;
78877;SDS011;68257;43.514;1.498;2023-03-23T11:56:12;10.32;;;7.97;;
78877;SDS011;68257;43.514;1.498;2023-03-23T11:58:41;9.65;;;7.90;;
78877;SDS011;68257;43.514;1.498;2023-03-23T12:04:00;8.70;;;6.88;;
78877;SDS011;68257;43.514;1.498;2023-03-23T12:12:30;8.35;;;6.43;;
78877;SDS011;68257;43.514;1.498;2023-03-23T12:26:03;7.88;;;6.32;;
78877;SDS011;68257;43.514;1.498;2023-03-23T12:28:38;7.60;;;6.30;;
78877;SDS011;68257;43.514;1.498;2023-03-23T12:37:06;8.95;;;6.32;;
78877;SDS011;68257;43.514;1.498;2023-03-23T12:44:49;9.13;;;6.20;;
78877;SDS011;68257;43.514;1.498;2023-03-23T12:47:20;9.77;;;6.82;;
78877;SDS011;68257;43.514;1.498;2023-03-23T12:56:17;8.53;;;6.40;;
78877;SDS011;68257;43.514;1.498;2023-03-23T12:58:40;7.80;;;6.22;;
78877;SDS011;68257;43.514;1.498;2023-03-23T13:01:10;10.32;;;6.85;;
78877;SDS011;68257;43.514;1.498;2023-03-23T13:03:57;8.93;;;5.95;;
78877;SDS011;68257;43.514;1.498;2023-03-23T13:06:37;7.68;;;6.10;;
78877;SDS011;68257;43.514;1.498;2023-03-23T13:11:45;9.80;;;6.43;;
78877;SDS011;68257;43.514;1.498;2023-03-23T13:16:55;8.55;;;6.20;;
78877;SDS011;68257;43.514;1.498;2023-03-23T13:24:24;8.82;;;6.20;;
78877;SDS011;68257;43.514;1.498;2023-03-23T13:26:52;8.77;;;6.05;;
78877;SDS011;68257;43.514;1.498;2023-03-23T13:29:21;9.82;;;6.43;;
78877;SDS011;68257;43.514;1.498;2023-03-23T13:31:52;8.73;;;5.50;;
78877;SDS011;68257;43.514;1.498;2023-03-23T13:36:44;7.50;;;6.40;;
78877;SDS011;68257;43.514;1.498;2023-03-23T13:39:27;8.50;;;6.00;;
78877;SDS011;68257;43.514;1.498;2023-03-23T13:42:00;6.93;;;5.80;;
78877;SDS011;68257;43.514;1.498;2023-03-23T13:49:54;9.10;;;5.50;;
78877;SDS011;68257;43.514;1.498;2023-03-23T13:55:17;8.25;;;5.25;;
78877;SDS011;68257;43.514;1.498;2023-03-23T13:57:50;7.67;;;5.60;;
78877;SDS011;68257;43.514;1.498;2023-03-23T14:11:00;6.67;;;5.00;;
78877;SDS011;68257;43.514;1.498;2023-03-23T14:13:47;6.57;;;5.10;;
78877;SDS011;68257;43.514;1.498;2023-03-23T14:16:21;9.02;;;5.10;;
78877;SDS011;68257;43.514;1.498;2023-03-23T14:18:51;8.85;;;5.00;;
78877;SDS011;68257;43.514;1.498;2023-03-23T14:21:39;9.18;;;5.20;;
78877;SDS011;68257;43.514;1.498;2023-03-23T14:24:09;7.87;;;5.33;;
78877;SDS011;68257;43.514;1.498;2023-03-23T14:26:37;6.72;;;5.30;;
78877;SDS011;68257;43.514;1.498;2023-03-23T14:29:03;9.50;;;6.40;;
78877;SDS011;68257;43.514;1.498;2023-03-23T14:31:30;9.48;;;5.88;;
78877;SDS011;68257;43.514;1.498;2023-03-23T14:33:56;8.97;;;5.53;;
78877;SDS011;68257;43.514;1.498;2023-03-23T14:36:28;8.35;;;6.07;;
78877;SDS011;68257;43.514;1.498;2023-03-23T14:41:46;9.68;;;6.22;;
78877;SDS011;68257;43.514;1.498;2023-03-23T14:44:14;9.60;;;6.28;;
78877;SDS011;68257;43.514;1.498;2023-03-23T14:46:46;9.07;;;6.27;;
78877;SDS011;68257;43.514;1.498;2023-03-23T14:49:16;9.48;;;6.20;;
78877;SDS011;68257;43.514;1.498;2023-03-23T14:51:46;8.10;;;5.85;;
78877;SDS011;68257;43.514;1.498;2023-03-23T14:54:18;9.25;;;6.60;;
78877;SDS011;68257;43.514;1.498;2023-03-23T14:56:46;9.73;;;6.57;;
78877;SDS011;68257;43.514;1.498;2023-03-23T14:59:12;10.25;;;6.47;;
78877;SDS011;68257;43.514;1.498;2023-03-23T15:01:37;8.53;;;5.53;;
78877;SDS011;68257;43.514;1.498;2023-03-23T15:04:06;10.27;;;6.93;;
78877;SDS011;68257;43.514;1.498;2023-03-23T15:06:34;10.13;;;6.43;;
78877;SDS011;68257;43.514;1.498;2023-03-23T15:09:02;10.27;;;7.30;;
78877;SDS011;68257;43.514;1.498;2023-03-23T15:11:30;8.82;;;6.05;;
78877;SDS011;68257;43.514;1.498;2023-03-23T15:13:58;11.63;;;7.00;;
78877;SDS011;68257;43.514;1.498;2023-03-23T15:16:29;10.95;;;6.93;;
78877;SDS011;68257;43.514;1.498;2023-03-23T15:18:59;8.98;;;6.60;;
78877;SDS011;68257;43.514;1.498;2023-03-23T15:21:30;9.97;;;6.60;;
78877;SDS011;68257;43.514;1.498;2023-03-23T15:23:57;9.40;;;5.47;;
78877;SDS011;68257;43.514;1.498;2023-03-23T15:26:28;9.40;;;6.22;;
78877;SDS011;68257;43.514;1.498;2023-03-23T15:29:03;10.13;;;6.47;;
78877;SDS011;68257;43.514;1.498;2023-03-23T15:31:45;8.18;;;6.22;;
78877;SDS011;68257;43.514;1.498;2023-03-23T15:34:20;8.23;;;6.13;;
78877;SDS011;68257;43.514;1.498;2023-03-23T15:37:04;9.13;;;6.05;;
78877;SDS011;68257;43.514;1.498;2023-03-23T15:39:31;8.35;;;5.95;;
78877;SDS011;68257;43.514;1.498;2023-03-23T15:41:57;10.73;;;6.30;;
78877;SDS011;68257;43.514;1.498;2023-03-23T15:44:28;10.23;;;5.30;;
78877;SDS011;68257;43.514;1.498;2023-03-23T15:47:34;8.13;;;5.10;;
78877;SDS011;68257;43.514;1.498;2023-03-23T15:49:58;9.73;;;5.45;;
78877;SDS011;68257;43.514;1.498;2023-03-23T15:52:27;8.23;;;5.30;;
78877;SDS011;68257;43.514;1.498;2023-03-23T15:54:52;10.60;;;6.10;;
78877;SDS011;68257;43.514;1.498;2023-03-23T15:57:17;9.93;;;5.77;;
78877;SDS011;68257;43.514;1.498;2023-03-23T15:59:43;9.27;;;6.10;;
78877;SDS011;68257;43.514;1.498;2023-03-23T16:02:13;11.30;;;5.53;;
78877;SDS011;68257;43.514;1.498;2023-03-23T16:04:42;9.93;;;5.57;;
78877;SDS011;68257;43.514;1.498;2023-03-23T16:07:07;9.48;;;5.05;;
78877;SDS011;68257;43.514;1.498;2023-03-23T16:09:37;11.50;;;5.50;;
78877;SDS011;68257;43.514;1.498;2023-03-23T16:12:03;9.60;;;5.53;;
78877;SDS011;68257;43.514;1.498;2023-03-23T16:14:29;13.40;;;6.40;;
78877;SDS011;68257;43.514;1.498;2023-03-23T16:16:54;10.60;;;5.65;;
78877;SDS011;68257;43.514;1.498;2023-03-23T16:19:20;9.90;;;5.43;;
78877;SDS011;68257;43.514;1.498;2023-03-23T16:21:48;9.85;;;5.30;;
78877;SDS011;68257;43.514;1.498;2023-03-23T16:24:13;9.50;;;5.50;;
78877;SDS011;68257;43.514;1.498;2023-03-23T16:26:39;13.77;;;6.47;;
78877;SDS011;68257;43.514;1.498;2023-03-23T16:29:12;8.68;;;5.35;;
78877;SDS011;68257;43.514;1.498;2023-03-23T16:31:39;9.68;;;5.32;;
78877;SDS011;68257;43.514;1.498;2023-03-23T16:34:04;7.93;;;4.60;;
78877;SDS011;68257;43.514;1.498;2023-03-23T16:36:30;8.90;;;4.73;;
78877;SDS011;68257;43.514;1.498;2023-03-23T16:38:55;10.40;;;5.00;;
78877;SDS011;68257;43.514;1.498;2023-03-23T16:41:20;12.75;;;5.00;;
78877;SDS011;68257;43.514;1.498;2023-03-23T16:43:46;10.47;;;4.47;;
78877;SDS011;68257;43.514;1.498;2023-03-23T16:46:11;9.17;;;4.80;;
78877;SDS011;68257;43.514;1.498;2023-03-23T16:48:38;11.98;;;4.78;;
78877;SDS011;68257;43.514;1.498;2023-03-23T16:51:03;11.23;;;5.40;;
78877;SDS011;68257;43.514;1.498;2023-03-23T16:53:29;12.77;;;5.00;;
78877;SDS011;68257;43.514;1.498;2023-03-23T16:55:54;8.95;;;3.92;;
78877;SDS011;68257;43.514;1.498;2023-03-23T16:58:21;9.00;;;5.10;;
78877;SDS011;68257;43.514;1.498;2023-03-23T17:00:47;9.85;;;4.57;;
78877;SDS011;68257;43.514;1.498;2023-03-23T17:03:13;9.23;;;4.72;;
78877;SDS011;68257;43.514;1.498;2023-03-23T17:05:40;10.85;;;5.65;;